createdAt,value
2023-03-22T00:00:50.853Z,5.37
2023-03-22T00:03:19.819Z,5.30
2023-03-22T00:05:52.866Z,5.26
2023-03-22T00:08:22.806Z,5.26
2023-03-22T00:10:54.551Z,5.28
2023-03-22T00:13:23.463Z,5.26
2023-03-22T00:15:53.438Z,5.30
2023-03-22T00:18:22.961Z,5.20
2023-03-22T00:20:54.549Z,5.12
2023-03-22T00:23:23.618Z,5.05
2023-03-22T00:25:52.591Z,4.95
2023-03-22T00:28:21.664Z,4.84
2023-03-22T00:30:55.390Z,4.71
2023-03-22T00:33:24.593Z,4.61
2023-03-22T00:35:58.729Z,4.50
2023-03-22T00:38:42.127Z,4.41
2023-03-22T00:41:13.673Z,4.34
2023-03-22T00:43:42.991Z,4.28
2023-03-22T00:46:12.616Z,4.24
2023-03-22T00:48:41.939Z,4.27
2023-03-22T00:51:12.094Z,4.37
2023-03-22T00:53:43.269Z,4.37
2023-03-22T00:56:14.033Z,4.30
2023-03-22T00:58:43.325Z,4.23
2023-03-22T01:01:14.208Z,4.23
2023-03-22T01:03:43.438Z,4.19
2023-03-22T01:06:13.702Z,4.11
2023-03-22T01:08:42.020Z,4.06
2023-03-22T01:11:11.783Z,4.08
2023-03-22T01:13:41.902Z,4.04
2023-03-22T01:16:11.821Z,4.02
2023-03-22T01:18:40.895Z,3.99
2023-03-22T01:21:09.855Z,4.04
2023-03-22T01:23:40.384Z,4.03
2023-03-22T01:26:08.876Z,4.02
2023-03-22T01:28:37.690Z,3.92
2023-03-22T01:31:06.795Z,4.00
2023-03-22T01:33:35.924Z,3.98
2023-03-22T01:36:04.681Z,3.96
2023-03-22T01:38:33.525Z,3.91
2023-03-22T01:41:03.524Z,3.81
2023-03-22T01:43:32.516Z,3.71
2023-03-22T01:46:01.361Z,3.66
2023-03-22T01:48:34.249Z,3.62
2023-03-22T01:51:07.873Z,3.57
2023-03-22T01:53:39.919Z,3.48
2023-03-22T01:56:12.065Z,3.40
2023-03-22T01:58:41.744Z,3.31
2023-03-22T02:01:11.313Z,3.25
2023-03-22T02:03:46.520Z,3.20
2023-03-22T02:06:15.096Z,3.16
2023-03-22T02:08:43.486Z,3.11
2023-03-22T02:11:17.067Z,3.03
2023-03-22T02:14:03.773Z,3.10
2023-03-22T02:16:42.475Z,3.04
2023-03-22T02:19:32.617Z,2.99
2023-03-22T02:22:58.109Z,2.98
2023-03-22T02:25:53.681Z,2.93
2023-03-22T02:28:40.850Z,2.82
2023-03-22T02:31:48.012Z,2.75
2023-03-22T02:34:59.330Z,2.72
2023-03-22T02:38:03.615Z,2.66
2023-03-22T02:40:37.040Z,2.60
2023-03-22T02:43:16.693Z,2.55
2023-03-22T02:45:51.733Z,2.48
2023-03-22T02:48:28.973Z,2.43
2023-03-22T02:51:01.978Z,2.38
2023-03-22T02:53:35.067Z,2.36
2023-03-22T02:56:10.885Z,2.37
2023-03-22T02:58:46.074Z,2.39
2023-03-22T03:01:20.099Z,2.39
2023-03-22T03:03:51.530Z,2.42
2023-03-22T03:06:25.894Z,2.42
2023-03-22T03:08:58.011Z,2.42
2023-03-22T03:11:27.906Z,2.45
2023-03-22T03:13:56.864Z,2.49
2023-03-22T03:16:28.543Z,2.61
2023-03-22T03:19:03.023Z,2.74
2023-03-22T03:21:37.553Z,2.87
2023-03-22T03:24:22.330Z,3.01
2023-03-22T03:26:59.140Z,3.10
2023-03-22T03:29:30.044Z,3.15
2023-03-22T03:32:06.549Z,3.21
2023-03-22T03:34:42.201Z,3.28
2023-03-22T03:37:15.156Z,3.37
2023-03-22T03:39:49.687Z,3.46
2023-03-22T03:42:20.866Z,3.56
2023-03-22T03:44:50.110Z,3.66
2023-03-22T03:47:19.807Z,3.78
2023-03-22T03:49:48.738Z,3.89
2023-03-22T03:52:17.630Z,4.00
2023-03-22T03:54:46.363Z,4.08
2023-03-22T03:57:16.715Z,4.16
2023-03-22T03:59:47.651Z,4.23
2023-03-22T04:02:16.741Z,4.27
2023-03-22T04:04:45.551Z,4.31
2023-03-22T04:07:13.850Z,4.37
2023-03-22T04:09:42.649Z,4.42
2023-03-22T04:12:11.613Z,4.46
2023-03-22T04:14:40.113Z,4.49
2023-03-22T04:17:10.801Z,4.50
2023-03-22T04:19:39.663Z,4.52
2023-03-22T04:22:14.891Z,4.54
2023-03-22T04:24:43.358Z,4.51
2023-03-22T04:27:12.029Z,4.50
2023-03-22T04:29:40.647Z,4.47
2023-03-22T04:32:11.236Z,4.44
2023-03-22T04:34:40.246Z,4.39
2023-03-22T04:37:08.759Z,4.34
2023-03-22T04:39:37.635Z,4.31
2023-03-22T04:42:06.226Z,4.33
2023-03-22T04:44:34.623Z,4.36
2023-03-22T04:47:03.471Z,4.39
2023-03-22T04:49:33.654Z,4.45
2023-03-22T04:52:02.984Z,4.47
2023-03-22T04:54:31.802Z,4.42
2023-03-22T04:57:01.071Z,4.37
2023-03-22T04:59:29.864Z,4.33
2023-03-22T05:01:58.707Z,4.35
2023-03-22T05:04:27.479Z,4.44
2023-03-22T05:06:57.749Z,4.55
2023-03-22T05:09:26.573Z,4.66
2023-03-22T05:11:55.020Z,4.80
2023-03-22T05:14:23.826Z,4.93
2023-03-22T05:16:52.249Z,5.07
2023-03-22T05:19:22.443Z,5.19
2023-03-22T05:21:58.039Z,5.29
2023-03-22T05:24:28.507Z,5.41
2023-03-22T05:27:01.809Z,5.51
2023-03-22T05:29:36.870Z,5.64
2023-03-22T05:32:05.844Z,5.79
2023-03-22T05:34:36.900Z,5.93
2023-03-22T05:37:05.492Z,6.05
2023-03-22T05:39:35.857Z,6.15
2023-03-22T05:42:04.661Z,6.25
2023-03-22T09:13:47.075Z,15.34
2023-03-22T09:16:17.386Z,15.56
2023-03-22T09:18:46.794Z,15.61
2023-03-22T09:21:16.374Z,15.69
2023-03-22T09:23:47.985Z,15.75
2023-03-22T09:26:16.774Z,15.81
2023-03-22T09:28:46.941Z,15.87
2023-03-22T09:31:20.224Z,15.86
2023-03-22T09:33:49.270Z,15.83
2023-03-22T09:36:18.693Z,15.93
2023-03-22T09:38:47.618Z,16.07
2023-03-22T09:41:22.404Z,16.13
2023-03-22T09:43:55.118Z,16.10
2023-03-22T09:46:31.826Z,15.96
2023-03-22T09:49:03.157Z,15.94
2023-03-22T09:51:41.201Z,15.80
2023-03-22T09:54:19.921Z,15.59
2023-03-22T09:56:52.821Z,15.58
2023-03-22T09:59:27.271Z,15.58
2023-03-22T10:02:01.855Z,15.65
2023-03-22T10:04:47.378Z,15.78
2023-03-22T10:07:27.259Z,15.81
2023-03-22T10:10:05.906Z,15.79
2023-03-22T10:12:42.386Z,15.87
2023-03-22T10:15:15.867Z,16.00
2023-03-22T10:17:49.702Z,15.97
2023-03-22T10:20:33.982Z,15.99
2023-03-22T10:23:05.669Z,15.97
2023-03-22T10:25:38.248Z,15.98
2023-03-22T10:28:17.527Z,15.98
2023-03-22T10:30:53.552Z,16.10
2023-03-22T10:33:32.567Z,16.18
2023-03-22T10:36:06.025Z,16.34
2023-03-22T10:38:38.780Z,16.50
2023-03-22T10:41:10.327Z,16.65
2023-03-22T10:43:40.730Z,16.85
2023-03-22T10:46:17.883Z,17.06
2023-03-22T10:48:51.408Z,17.06
2023-03-22T10:51:27.568Z,17.08
2023-03-22T10:53:58.253Z,17.06
2023-03-22T10:56:27.311Z,17.27
2023-03-22T10:58:57.274Z,17.37
2023-03-22T11:01:31.632Z,17.37
2023-03-22T11:04:09.671Z,17.44
2023-03-22T11:06:44.344Z,17.47
2023-03-22T11:09:16.833Z,17.51
2023-03-22T11:11:51.652Z,17.63
2023-03-22T11:14:26.428Z,17.83
2023-03-22T11:16:59.786Z,17.84
2023-03-22T11:19:34.961Z,17.78
2023-03-22T11:22:05.992Z,17.69
2023-03-22T11:24:36.327Z,17.68
2023-03-22T11:27:06.984Z,17.64
2023-03-22T11:29:42.326Z,17.62
2023-03-22T11:32:24.387Z,17.69
2023-03-22T11:35:03.434Z,17.69
2023-03-22T11:37:32.406Z,17.76
2023-03-22T11:40:05.121Z,17.83
2023-03-22T11:42:35.843Z,17.78
2023-03-22T11:45:04.909Z,17.67
2023-03-22T11:47:42.245Z,17.59
2023-03-22T11:50:31.116Z,17.70
2023-03-22T11:53:04.239Z,17.80
2023-03-22T11:55:33.149Z,17.86
2023-03-22T11:58:07.720Z,17.79
2023-03-22T12:00:40.068Z,17.68
2023-03-22T12:03:14.884Z,17.62
2023-03-22T12:05:50.115Z,17.38
2023-03-22T12:08:27.168Z,17.30
2023-03-22T12:11:00.297Z,17.22
2023-03-22T12:13:40.924Z,17.30
2023-03-22T12:16:14.539Z,17.45
2023-03-22T12:18:49.149Z,17.55
2023-03-22T12:21:19.765Z,17.62
2023-03-22T12:23:48.171Z,17.62
2023-03-22T12:26:20.756Z,17.66
2023-03-22T12:28:55.662Z,17.73
2023-03-22T12:31:29.029Z,17.84
2023-03-22T12:34:00.473Z,17.91
2023-03-22T12:36:37.005Z,17.87
2023-03-22T12:39:10.583Z,17.87
2023-03-22T12:41:41.393Z,17.82
2023-03-22T12:44:28.227Z,17.66
2023-03-22T12:46:59.896Z,17.62
2023-03-22T12:49:35.934Z,17.74
2023-03-22T12:52:12.063Z,18.04
2023-03-22T12:54:42.212Z,18.26
2023-03-22T12:57:12.038Z,18.43
2023-03-22T12:59:45.831Z,18.62
2023-03-22T13:02:18.175Z,18.74
2023-03-22T13:04:55.012Z,18.69
2023-03-22T13:07:38.408Z,18.71
2023-03-22T13:10:56.208Z,18.78
2023-03-22T13:13:41.817Z,18.67
2023-03-22T13:16:22.911Z,18.60
2023-03-22T13:19:02.041Z,18.53
2023-03-22T13:21:33.614Z,18.34
2023-03-22T13:24:22.438Z,18.23
2023-03-22T13:26:53.192Z,18.07
2023-03-22T13:29:24.786Z,18.01
2023-03-22T13:31:59.033Z,18.08
2023-03-22T13:34:37.621Z,18.11
2023-03-22T13:37:12.074Z,18.10
2023-03-22T13:39:46.558Z,18.10
2023-03-22T13:42:21.777Z,18.11
2023-03-22T13:44:58.690Z,18.08
2023-03-22T13:47:37.157Z,18.04
2023-03-22T13:50:14.029Z,17.95
2023-03-22T13:52:47.566Z,17.97
2023-03-22T13:55:41.349Z,17.98
2023-03-22T13:58:33.084Z,17.98
2023-03-22T14:01:02.863Z,17.91
2023-03-22T14:03:34.943Z,17.85
2023-03-22T14:06:20.775Z,17.76
2023-03-22T14:08:53.406Z,17.72
2023-03-22T14:11:28.371Z,17.62
2023-03-22T14:14:02.220Z,17.44
2023-03-22T14:16:41.738Z,17.26
2023-03-22T14:19:18.896Z,17.20
